Terminal Aerodrome Forecast
Issued by NWS

Home | Current Version | Previous Version | Text Only | Print | Product List | Glossary Off
Versions: 1 2 3 4 5 6 7 8 9 10 11 12 13 14 15 16 17 18 19 20 21 22 23 24 25 26

366
FTUS43 KBIS 261538 AAA
TAFJMS
TAF AMD
KJMS 261538Z 2616/2712 24004KT P6SM SCT004 SCT100
      TEMPO 2616/2618 BKN004
     FM261800 VRB03KT P6SM SCT015 BKN080
     FM262000 VRB03KT P6SM BKN050=

USA.gov is the U.S. government's official web portal to all federal, state and local government web resources and services.